sensor_id;sensor_type;location;lat;lon;timestamp;temperature;humidity
32476;DHT22;18929;48.008;10.882;2022-10-14T00:00:40;15.00;99.90
32476;DHT22;18929;48.008;10.882;2022-10-14T00:03:08;14.90;99.90
32476;DHT22;18929;48.008;10.882;2022-10-14T00:05:39;15.10;99.90
32476;DHT22;18929;48.008;10.882;2022-10-14T00:08:06;15.20;99.90
32476;DHT22;18929;48.008;10.882;2022-10-14T00:10:37;15.20;99.90
32476;DHT22;18929;48.008;10.882;2022-10-14T00:13:05;15.00;99.90
32476;DHT22;18929;48.008;10.882;2022-10-14T00:15:36;15.10;99.90
32476;DHT22;18929;48.008;10.882;2022-10-14T00:18:04;15.00;99.90
32476;DHT22;18929;48.008;10.882;2022-10-14T00:20:31;14.80;99.90
32476;DHT22;18929;48.008;10.882;2022-10-14T00:22:58;14.80;99.90
32476;DHT22;18929;48.008;10.882;2022-10-14T00:25:25;14.80;99.90
32476;DHT22;18929;48.008;10.882;2022-10-14T00:27:54;14.60;99.90
32476;DHT22;18929;48.008;10.882;2022-10-14T00:30:21;14.60;99.90
32476;DHT22;18929;48.008;10.882;2022-10-14T00:32:48;14.10;99.90
32476;DHT22;18929;48.008;10.882;2022-10-14T00:35:15;14.60;99.90
32476;DHT22;18929;48.008;10.882;2022-10-14T00:37:43;14.80;99.90
32476;DHT22;18929;48.008;10.882;2022-10-14T00:40:10;14.50;99.90
32476;DHT22;18929;48.008;10.882;2022-10-14T00:42:37;14.10;99.90
32476;DHT22;18929;48.008;10.882;2022-10-14T00:45:11;14.50;99.90
32476;DHT22;18929;48.008;10.882;2022-10-14T00:47:39;14.70;99.90
32476;DHT22;18929;48.008;10.882;2022-10-14T00:50:08;14.80;99.90
32476;DHT22;18929;48.008;10.882;2022-10-14T00:52:36;15.00;99.90
32476;DHT22;18929;48.008;10.882;2022-10-14T00:55:06;15.10;99.90
32476;DHT22;18929;48.008;10.882;2022-10-14T00:57:34;15.30;99.90
32476;DHT22;18929;48.008;10.882;2022-10-14T01:00:07;15.20;99.90
32476;DHT22;18929;48.008;10.882;2022-10-14T01:02:34;15.30;99.90
32476;DHT22;18929;48.008;10.882;2022-10-14T01:05:04;15.30;99.90
32476;DHT22;18929;48.008;10.882;2022-10-14T01:07:45;15.20;99.90
32476;DHT22;18929;48.008;10.882;2022-10-14T01:10:22;15.30;99.90
32476;DHT22;18929;48.008;10.882;2022-10-14T01:13:00;15.20;99.90
32476;DHT22;18929;48.008;10.882;2022-10-14T01:15:35;15.30;99.90
32476;DHT22;18929;48.008;10.882;2022-10-14T01:18:16;15.20;99.90
32476;DHT22;18929;48.008;10.882;2022-10-14T01:20:59;15.10;99.90
32476;DHT22;18929;48.008;10.882;2022-10-14T01:23:50;15.10;99.90
32476;DHT22;18929;48.008;10.882;2022-10-14T01:30:07;15.00;99.90
32476;DHT22;18929;48.008;10.882;2022-10-14T01:32:42;15.00;99.90
32476;DHT22;18929;48.008;10.882;2022-10-14T01:35:16;14.90;99.90
32476;DHT22;18929;48.008;10.882;2022-10-14T01:37:48;14.90;99.90
32476;DHT22;18929;48.008;10.882;2022-10-14T01:40:19;14.90;99.90
32476;DHT22;18929;48.008;10.882;2022-10-14T01:42:52;14.80;99.90
32476;DHT22;18929;48.008;10.882;2022-10-14T01:45:22;14.90;99.90
32476;DHT22;18929;48.008;10.882;2022-10-14T01:47:52;15.00;99.90
32476;DHT22;18929;48.008;10.882;2022-10-14T01:50:22;15.10;99.90
32476;DHT22;18929;48.008;10.882;2022-10-14T01:52:54;15.40;99.90
32476;DHT22;18929;48.008;10.882;2022-10-14T01:55:25;15.20;99.90
32476;DHT22;18929;48.008;10.882;2022-10-14T01:57:55;15.40;99.90
32476;DHT22;18929;48.008;10.882;2022-10-14T02:00:24;15.50;99.90
32476;DHT22;18929;48.008;10.882;2022-10-14T02:02:51;15.20;99.90
32476;DHT22;18929;48.008;10.882;2022-10-14T02:05:21;15.40;99.90
32476;DHT22;18929;48.008;10.882;2022-10-14T02:07:56;15.30;99.90
32476;DHT22;18929;48.008;10.882;2022-10-14T02:10:33;15.20;99.90
32476;DHT22;18929;48.008;10.882;2022-10-14T02:13:11;15.30;99.90
32476;DHT22;18929;48.008;10.882;2022-10-14T02:15:51;15.40;99.90
32476;DHT22;18929;48.008;10.882;2022-10-14T02:18:25;15.10;99.90
32476;DHT22;18929;48.008;10.882;2022-10-14T02:21:02;15.10;99.90
32476;DHT22;18929;48.008;10.882;2022-10-14T02:23:34;15.10;99.90
32476;DHT22;18929;48.008;10.882;2022-10-14T02:26:03;15.20;99.90
32476;DHT22;18929;48.008;10.882;2022-10-14T02:28:32;15.30;99.90
32476;DHT22;18929;48.008;10.882;2022-10-14T02:31:05;15.30;99.90
32476;DHT22;18929;48.008;10.882;2022-10-14T02:33:36;15.20;99.90
32476;DHT22;18929;48.008;10.882;2022-10-14T02:36:07;15.20;99.90
32476;DHT22;18929;48.008;10.882;2022-10-14T02:38:36;15.10;99.90
32476;DHT22;18929;48.008;10.882;2022-10-14T02:41:05;15.30;99.90
32476;DHT22;18929;48.008;10.882;2022-10-14T02:43:33;15.40;99.90
32476;DHT22;18929;48.008;10.882;2022-10-14T02:46:03;15.40;99.90
32476;DHT22;18929;48.008;10.882;2022-10-14T02:48:31;15.00;99.90
32476;DHT22;18929;48.008;10.882;2022-10-14T02:50:58;15.00;99.90
32476;DHT22;18929;48.008;10.882;2022-10-14T02:53:25;15.00;99.90
32476;DHT22;18929;48.008;10.882;2022-10-14T02:55:52;14.70;99.90
32476;DHT22;18929;48.008;10.882;2022-10-14T02:58:19;14.90;99.90
32476;DHT22;18929;48.008;10.882;2022-10-14T03:00:47;14.70;99.90
32476;DHT22;18929;48.008;10.882;2022-10-14T03:03:15;14.70;99.90
32476;DHT22;18929;48.008;10.882;2022-10-14T03:05:42;14.40;99.90
32476;DHT22;18929;48.008;10.882;2022-10-14T03:08:09;14.70;99.90
32476;DHT22;18929;48.008;10.882;2022-10-14T03:10:36;14.70;99.90
32476;DHT22;18929;48.008;10.882;2022-10-14T03:13:03;14.90;99.90
32476;DHT22;18929;48.008;10.882;2022-10-14T03:15:30;14.90;99.90
32476;DHT22;18929;48.008;10.882;2022-10-14T03:17:57;15.10;99.90
32476;DHT22;18929;48.008;10.882;2022-10-14T03:20:25;15.00;99.90
32476;DHT22;18929;48.008;10.882;2022-10-14T03:22:53;14.80;99.90
32476;DHT22;18929;48.008;10.882;2022-10-14T03:25:19;14.90;99.90
32476;DHT22;18929;48.008;10.882;2022-10-14T03:27:46;14.40;99.90
32476;DHT22;18929;48.008;10.882;2022-10-14T03:30:14;14.50;99.90
32476;DHT22;18929;48.008;10.882;2022-10-14T03:32:41;14.80;99.90
32476;DHT22;18929;48.008;10.882;2022-10-14T03:35:08;14.70;99.90
32476;DHT22;18929;48.008;10.882;2022-10-14T03:37:36;15.00;99.90
32476;DHT22;18929;48.008;10.882;2022-10-14T03:40:04;15.00;99.90
32476;DHT22;18929;48.008;10.882;2022-10-14T03:42:31;15.00;99.90
32476;DHT22;18929;48.008;10.882;2022-10-14T03:44:58;15.10;99.90
32476;DHT22;18929;48.008;10.882;2022-10-14T03:47:25;15.10;99.90
32476;DHT22;18929;48.008;10.882;2022-10-14T03:49:52;15.10;99.90
32476;DHT22;18929;48.008;10.882;2022-10-14T03:52:19;15.10;99.90
32476;DHT22;18929;48.008;10.882;2022-10-14T03:54:47;15.30;99.90
32476;DHT22;18929;48.008;10.882;2022-10-14T03:57:14;15.20;99.90
32476;DHT22;18929;48.008;10.882;2022-10-14T03:59:41;15.20;99.90
32476;DHT22;18929;48.008;10.882;2022-10-14T04:02:08;15.20;99.90
32476;DHT22;18929;48.008;10.882;2022-10-14T04:04:35;15.40;99.90
32476;DHT22;18929;48.008;10.882;2022-10-14T04:07:02;15.30;99.90
32476;DHT22;18929;48.008;10.882;2022-10-14T04:09:29;15.30;99.90
32476;DHT22;18929;48.008;10.882;2022-10-14T04:11:58;15.30;99.90
32476;DHT22;18929;48.008;10.882;2022-10-14T04:14:25;15.20;99.90
32476;DHT22;18929;48.008;10.882;2022-10-14T04:16:52;15.20;99.90
32476;DHT22;18929;48.008;10.882;2022-10-14T04:19:19;15.10;99.90
32476;DHT22;18929;48.008;10.882;2022-10-14T04:21:46;15.10;99.90
32476;DHT22;18929;48.008;10.882;2022-10-14T04:24:14;15.00;99.90
32476;DHT22;18929;48.008;10.882;2022-10-14T04:29:45;15.00;99.90
32476;DHT22;18929;48.008;10.882;2022-10-14T04:32:12;15.00;99.90
32476;DHT22;18929;48.008;10.882;2022-10-14T04:34:39;15.10;99.90
32476;DHT22;18929;48.008;10.882;2022-10-14T04:37:06;15.10;99.90
32476;DHT22;18929;48.008;10.882;2022-10-14T04:39:33;15.00;99.90
32476;DHT22;18929;48.008;10.882;2022-10-14T04:42:00;14.80;99.90
32476;DHT22;18929;48.008;10.882;2022-10-14T04:44:27;14.80;99.90
32476;DHT22;18929;48.008;10.882;2022-10-14T04:46:55;14.80;99.90
32476;DHT22;18929;48.008;10.882;2022-10-14T04:49:23;15.00;99.90
32476;DHT22;18929;48.008;10.882;2022-10-14T04:51:50;15.10;99.90
32476;DHT22;18929;48.008;10.882;2022-10-14T04:54:17;14.90;99.90
32476;DHT22;18929;48.008;10.882;2022-10-14T04:56:44;14.80;99.90
32476;DHT22;18929;48.008;10.882;2022-10-14T04:59:11;14.80;99.90
32476;DHT22;18929;48.008;10.882;2022-10-14T05:01:39;14.90;99.90
32476;DHT22;18929;48.008;10.882;2022-10-14T05:04:07;15.00;99.90
32476;DHT22;18929;48.008;10.882;2022-10-14T05:06:34;14.90;99.90
32476;DHT22;18929;48.008;10.882;2022-10-14T05:09:02;14.80;99.90
32476;DHT22;18929;48.008;10.882;2022-10-14T05:11:29;14.90;99.90
32476;DHT22;18929;48.008;10.882;2022-10-14T05:13:56;14.90;99.90
32476;DHT22;18929;48.008;10.882;2022-10-14T05:16:23;14.90;99.90
32476;DHT22;18929;48.008;10.882;2022-10-14T05:18:51;14.60;99.90
32476;DHT22;18929;48.008;10.882;2022-10-14T05:21:20;14.70;99.90
32476;DHT22;18929;48.008;10.882;2022-10-14T05:23:47;14.60;99.90
32476;DHT22;18929;48.008;10.882;2022-10-14T05:26:17;14.70;99.90
32476;DHT22;18929;48.008;10.882;2022-10-14T05:28:44;14.70;99.90
32476;DHT22;18929;48.008;10.882;2022-10-14T05:31:14;14.80;99.90
32476;DHT22;18929;48.008;10.882;2022-10-14T05:33:41;14.90;99.90
32476;DHT22;18929;48.008;10.882;2022-10-14T05:36:08;14.70;99.90
32476;DHT22;18929;48.008;10.882;2022-10-14T05:38:37;14.70;99.90
32476;DHT22;18929;48.008;10.882;2022-10-14T05:41:04;14.80;99.90
32476;DHT22;18929;48.008;10.882;2022-10-14T05:43:31;14.70;99.90
32476;DHT22;18929;48.008;10.882;2022-10-14T05:45:58;14.60;99.90
32476;DHT22;18929;48.008;10.882;2022-10-14T05:48:25;14.50;99.90
32476;DHT22;18929;48.008;10.882;2022-10-14T05:50:52;14.70;99.90
32476;DHT22;18929;48.008;10.882;2022-10-14T05:53:19;14.70;99.90
32476;DHT22;18929;48.008;10.882;2022-10-14T05:55:48;14.90;99.90
32476;DHT22;18929;48.008;10.882;2022-10-14T05:58:14;14.90;99.90
32476;DHT22;18929;48.008;10.882;2022-10-14T06:00:41;14.70;99.90
32476;DHT22;18929;48.008;10.882;2022-10-14T06:03:10;14.90;99.90
32476;DHT22;18929;48.008;10.882;2022-10-14T06:05:37;14.90;99.90
32476;DHT22;18929;48.008;10.882;2022-10-14T06:08:05;15.00;99.90
32476;DHT22;18929;48.008;10.882;2022-10-14T06:10:33;15.00;99.90
32476;DHT22;18929;48.008;10.882;2022-10-14T06:13:01;15.00;99.90
32476;DHT22;18929;48.008;10.882;2022-10-14T06:15:28;15.00;99.90
32476;DHT22;18929;48.008;10.882;2022-10-14T06:17:55;14.90;99.90
32476;DHT22;18929;48.008;10.882;2022-10-14T06:20:22;14.90;99.90
32476;DHT22;18929;48.008;10.882;2022-10-14T06:22:49;14.90;99.90
32476;DHT22;18929;48.008;10.882;2022-10-14T06:25:16;15.10;99.90
32476;DHT22;18929;48.008;10.882;2022-10-14T06:27:43;15.00;99.90
32476;DHT22;18929;48.008;10.882;2022-10-14T06:30:13;15.00;99.90
32476;DHT22;18929;48.008;10.882;2022-10-14T06:32:40;15.10;99.90
32476;DHT22;18929;48.008;10.882;2022-10-14T06:35:08;15.10;99.90
32476;DHT22;18929;48.008;10.882;2022-10-14T06:37:35;15.10;99.90
32476;DHT22;18929;48.008;10.882;2022-10-14T06:40:02;15.10;99.90
32476;DHT22;18929;48.008;10.882;2022-10-14T06:42:30;14.90;99.90
32476;DHT22;18929;48.008;10.882;2022-10-14T06:44:58;15.00;99.90
32476;DHT22;18929;48.008;10.882;2022-10-14T06:47:27;15.00;99.90
32476;DHT22;18929;48.008;10.882;2022-10-14T06:49:54;14.90;99.90
32476;DHT22;18929;48.008;10.882;2022-10-14T06:52:21;14.70;99.90
32476;DHT22;18929;48.008;10.882;2022-10-14T06:54:48;14.90;99.90
32476;DHT22;18929;48.008;10.882;2022-10-14T06:57:15;14.70;99.90
32476;DHT22;18929;48.008;10.882;2022-10-14T06:59:42;14.70;99.90
32476;DHT22;18929;48.008;10.882;2022-10-14T07:02:09;14.60;99.90
32476;DHT22;18929;48.008;10.882;2022-10-14T07:04:38;14.30;99.90
32476;DHT22;18929;48.008;10.882;2022-10-14T07:07:05;14.50;99.90
32476;DHT22;18929;48.008;10.882;2022-10-14T07:09:33;14.60;99.90
32476;DHT22;18929;48.008;10.882;2022-10-14T07:12:00;14.60;99.90
32476;DHT22;18929;48.008;10.882;2022-10-14T07:14:27;14.70;99.90
32476;DHT22;18929;48.008;10.882;2022-10-14T07:16:54;14.70;99.90
32476;DHT22;18929;48.008;10.882;2022-10-14T07:19:21;14.50;99.90
32476;DHT22;18929;48.008;10.882;2022-10-14T07:21:49;14.60;99.90
32476;DHT22;18929;48.008;10.882;2022-10-14T07:24:16;14.70;99.90
32476;DHT22;18929;48.008;10.882;2022-10-14T07:26:43;14.50;99.90
32476;DHT22;18929;48.008;10.882;2022-10-14T07:29:10;14.30;99.90
32476;DHT22;18929;48.008;10.882;2022-10-14T07:31:37;14.40;99.90
32476;DHT22;18929;48.008;10.882;2022-10-14T07:34:04;14.60;99.90
32476;DHT22;18929;48.008;10.882;2022-10-14T07:36:31;14.70;99.90
32476;DHT22;18929;48.008;10.882;2022-10-14T07:38:59;14.60;99.90
32476;DHT22;18929;48.008;10.882;2022-10-14T07:41:27;14.10;99.90
32476;DHT22;18929;48.008;10.882;2022-10-14T07:43:59;14.00;99.90
32476;DHT22;18929;48.008;10.882;2022-10-14T07:46:31;14.00;99.90
32476;DHT22;18929;48.008;10.882;2022-10-14T07:49:01;13.90;99.90
32476;DHT22;18929;48.008;10.882;2022-10-14T07:51:28;13.90;99.90
32476;DHT22;18929;48.008;10.882;2022-10-14T07:53:57;13.90;99.90
32476;DHT22;18929;48.008;10.882;2022-10-14T07:56:26;14.20;99.90
32476;DHT22;18929;48.008;10.882;2022-10-14T07:58:53;14.10;99.90
32476;DHT22;18929;48.008;10.882;2022-10-14T08:01:21;14.10;99.90
32476;DHT22;18929;48.008;10.882;2022-10-14T08:03:49;14.00;99.90
32476;DHT22;18929;48.008;10.882;2022-10-14T08:06:17;13.90;99.90
32476;DHT22;18929;48.008;10.882;2022-10-14T08:08:44;14.20;99.90
32476;DHT22;18929;48.008;10.882;2022-10-14T08:11:13;14.30;99.90
32476;DHT22;18929;48.008;10.882;2022-10-14T08:13:42;14.30;99.90
32476;DHT22;18929;48.008;10.882;2022-10-14T08:16:13;14.30;99.90
32476;DHT22;18929;48.008;10.882;2022-10-14T08:18:40;14.60;99.90
32476;DHT22;18929;48.008;10.882;2022-10-14T08:21:07;15.00;99.90
32476;DHT22;18929;48.008;10.882;2022-10-14T08:23:34;14.90;99.90
32476;DHT22;18929;48.008;10.882;2022-10-14T08:26:01;14.50;99.90
32476;DHT22;18929;48.008;10.882;2022-10-14T08:28:29;14.30;99.90
32476;DHT22;18929;48.008;10.882;2022-10-14T08:30:57;14.30;99.90
32476;DHT22;18929;48.008;10.882;2022-10-14T08:33:27;14.30;99.90
32476;DHT22;18929;48.008;10.882;2022-10-14T08:35:54;14.50;99.90
32476;DHT22;18929;48.008;10.882;2022-10-14T08:38:25;14.70;99.90
32476;DHT22;18929;48.008;10.882;2022-10-14T08:41:01;14.80;99.90
32476;DHT22;18929;48.008;10.882;2022-10-14T08:43:30;14.70;99.90
32476;DHT22;18929;48.008;10.882;2022-10-14T08:46:08;14.50;99.90
32476;DHT22;18929;48.008;10.882;2022-10-14T08:48:42;14.50;99.90
32476;DHT22;18929;48.008;10.882;2022-10-14T08:51:15;14.40;99.90
32476;DHT22;18929;48.008;10.882;2022-10-14T08:53:46;14.30;99.90
32476;DHT22;18929;48.008;10.882;2022-10-14T08:56:17;14.30;99.90
32476;DHT22;18929;48.008;10.882;2022-10-14T08:58:47;14.10;99.90
32476;DHT22;18929;48.008;10.882;2022-10-14T09:01:21;13.90;99.90
32476;DHT22;18929;48.008;10.882;2022-10-14T09:03:49;13.70;99.90
32476;DHT22;18929;48.008;10.882;2022-10-14T09:06:23;13.60;99.90
32476;DHT22;18929;48.008;10.882;2022-10-14T09:08:53;13.60;99.90
32476;DHT22;18929;48.008;10.882;2022-10-14T09:11:22;13.70;99.90
32476;DHT22;18929;48.008;10.882;2022-10-14T09:13:52;14.20;99.90
32476;DHT22;18929;48.008;10.882;2022-10-14T09:16:24;14.80;99.90
32476;DHT22;18929;48.008;10.882;2022-10-14T09:19:01;14.80;99.90
32476;DHT22;18929;48.008;10.882;2022-10-14T09:21:31;14.40;99.90
32476;DHT22;18929;48.008;10.882;2022-10-14T09:24:01;14.60;99.90
32476;DHT22;18929;48.008;10.882;2022-10-14T09:26:37;14.80;99.90
32476;DHT22;18929;48.008;10.882;2022-10-14T09:29:07;14.70;99.90
32476;DHT22;18929;48.008;10.882;2022-10-14T09:31:41;14.70;99.90
32476;DHT22;18929;48.008;10.882;2022-10-14T09:34:10;14.40;99.90
32476;DHT22;18929;48.008;10.882;2022-10-14T09:36:42;14.00;99.90
32476;DHT22;18929;48.008;10.882;2022-10-14T09:39:10;14.30;99.90
32476;DHT22;18929;48.008;10.882;2022-10-14T09:41:38;14.50;99.90
32476;DHT22;18929;48.008;10.882;2022-10-14T09:44:16;14.90;99.90
32476;DHT22;18929;48.008;10.882;2022-10-14T09:46:52;14.60;99.90
32476;DHT22;18929;48.008;10.882;2022-10-14T09:49:28;14.90;99.90
32476;DHT22;18929;48.008;10.882;2022-10-14T09:51:57;15.30;99.90
32476;DHT22;18929;48.008;10.882;2022-10-14T09:54:26;15.40;99.90
32476;DHT22;18929;48.008;10.882;2022-10-14T09:56:59;14.90;99.90
32476;DHT22;18929;48.008;10.882;2022-10-14T09:59:28;15.00;99.90
32476;DHT22;18929;48.008;10.882;2022-10-14T10:01:57;15.00;99.90
32476;DHT22;18929;48.008;10.882;2022-10-14T10:04:34;15.70;99.90
32476;DHT22;18929;48.008;10.882;2022-10-14T10:07:03;16.00;99.90
32476;DHT22;18929;48.008;10.882;2022-10-14T10:09:32;16.30;99.90
32476;DHT22;18929;48.008;10.882;2022-10-14T10:11:59;15.70;99.90
32476;DHT22;18929;48.008;10.882;2022-10-14T10:14:27;15.90;99.90
32476;DHT22;18929;48.008;10.882;2022-10-14T10:17:17;15.60;99.90
32476;DHT22;18929;48.008;10.882;2022-10-14T10:19:45;14.70;99.90
32476;DHT22;18929;48.008;10.882;2022-10-14T10:22:23;14.90;99.90
32476;DHT22;18929;48.008;10.882;2022-10-14T10:24:59;15.70;99.90
32476;DHT22;18929;48.008;10.882;2022-10-14T10:27:40;15.90;99.90
32476;DHT22;18929;48.008;10.882;2022-10-14T10:30:17;15.50;99.90
32476;DHT22;18929;48.008;10.882;2022-10-14T10:33:00;15.90;99.90
32476;DHT22;18929;48.008;10.882;2022-10-14T10:35:30;15.80;99.90
32476;DHT22;18929;48.008;10.882;2022-10-14T10:38:07;16.30;99.90
32476;DHT22;18929;48.008;10.882;2022-10-14T10:41:12;16.40;99.90
32476;DHT22;18929;48.008;10.882;2022-10-14T10:44:09;16.00;99.90
32476;DHT22;18929;48.008;10.882;2022-10-14T10:47:04;15.40;99.90
32476;DHT22;18929;48.008;10.882;2022-10-14T10:49:51;15.10;99.90
32476;DHT22;18929;48.008;10.882;2022-10-14T10:52:29;16.10;99.90
32476;DHT22;18929;48.008;10.882;2022-10-14T10:55:05;16.20;99.90
32476;DHT22;18929;48.008;10.882;2022-10-14T10:57:45;16.30;99.90
32476;DHT22;18929;48.008;10.882;2022-10-14T11:00:16;16.70;99.90
32476;DHT22;18929;48.008;10.882;2022-10-14T11:02:52;16.70;99.90
32476;DHT22;18929;48.008;10.882;2022-10-14T11:05:34;16.50;99.90
32476;DHT22;18929;48.008;10.882;2022-10-14T11:08:15;16.40;99.90
32476;DHT22;18929;48.008;10.882;2022-10-14T11:11:11;15.80;99.90
32476;DHT22;18929;48.008;10.882;2022-10-14T11:13:59;16.20;99.90
32476;DHT22;18929;48.008;10.882;2022-10-14T11:16:35;16.40;99.90
32476;DHT22;18929;48.008;10.882;2022-10-14T11:19:20;16.60;99.90
32476;DHT22;18929;48.008;10.882;2022-10-14T11:22:07;16.30;99.90
32476;DHT22;18929;48.008;10.882;2022-10-14T11:24:47;16.40;99.90
32476;DHT22;18929;48.008;10.882;2022-10-14T11:27:26;16.30;99.90
32476;DHT22;18929;48.008;10.882;2022-10-14T11:30:17;16.20;99.90
32476;DHT22;18929;48.008;10.882;2022-10-14T11:32:54;16.10;99.90
32476;DHT22;18929;48.008;10.882;2022-10-14T11:35:29;16.40;99.90
32476;DHT22;18929;48.008;10.882;2022-10-14T11:38:14;16.40;99.90
32476;DHT22;18929;48.008;10.882;2022-10-14T11:40:47;16.10;99.90
32476;DHT22;18929;48.008;10.882;2022-10-14T11:43:25;16.30;99.90
32476;DHT22;18929;48.008;10.882;2022-10-14T11:46:00;16.40;99.90
32476;DHT22;18929;48.008;10.882;2022-10-14T11:48:32;16.30;99.90
32476;DHT22;18929;48.008;10.882;2022-10-14T11:51:04;16.50;99.90
32476;DHT22;18929;48.008;10.882;2022-10-14T11:53:41;16.70;99.90
32476;DHT22;18929;48.008;10.882;2022-10-14T11:56:16;16.60;99.90
32476;DHT22;18929;48.008;10.882;2022-10-14T11:58:46;17.00;99.90
32476;DHT22;18929;48.008;10.882;2022-10-14T12:01:16;17.30;99.90
32476;DHT22;18929;48.008;10.882;2022-10-14T12:03:54;17.00;99.90
32476;DHT22;18929;48.008;10.882;2022-10-14T12:06:30;17.10;99.90
32476;DHT22;18929;48.008;10.882;2022-10-14T12:09:05;16.80;99.90
32476;DHT22;18929;48.008;10.882;2022-10-14T12:11:37;16.80;99.90
32476;DHT22;18929;48.008;10.882;2022-10-14T12:14:10;16.20;99.90
32476;DHT22;18929;48.008;10.882;2022-10-14T12:16:40;16.00;99.90
32476;DHT22;18929;48.008;10.882;2022-10-14T12:19:10;16.30;99.90
32476;DHT22;18929;48.008;10.882;2022-10-14T12:21:44;16.20;99.90
32476;DHT22;18929;48.008;10.882;2022-10-14T12:24:15;16.10;99.90
32476;DHT22;18929;48.008;10.882;2022-10-14T12:26:50;16.10;99.90
32476;DHT22;18929;48.008;10.882;2022-10-14T12:29:20;15.50;99.90
32476;DHT22;18929;48.008;10.882;2022-10-14T12:31:50;15.00;99.90
32476;DHT22;18929;48.008;10.882;2022-10-14T12:34:33;15.20;99.90
32476;DHT22;18929;48.008;10.882;2022-10-14T12:40:27;15.50;99.90
32476;DHT22;18929;48.008;10.882;2022-10-14T12:43:00;15.70;99.90
32476;DHT22;18929;48.008;10.882;2022-10-14T12:45:29;15.70;99.90
32476;DHT22;18929;48.008;10.882;2022-10-14T12:48:02;15.60;99.90
32476;DHT22;18929;48.008;10.882;2022-10-14T12:50:34;15.50;99.90
32476;DHT22;18929;48.008;10.882;2022-10-14T12:53:04;15.70;99.90
32476;DHT22;18929;48.008;10.882;2022-10-14T12:55:51;16.00;99.90
32476;DHT22;18929;48.008;10.882;2022-10-14T12:58:24;16.00;99.90
32476;DHT22;18929;48.008;10.882;2022-10-14T13:00:54;15.50;99.90
32476;DHT22;18929;48.008;10.882;2022-10-14T13:03:24;15.50;99.90
32476;DHT22;18929;48.008;10.882;2022-10-14T13:05:53;15.80;99.90
32476;DHT22;18929;48.008;10.882;2022-10-14T13:08:41;16.00;99.90
32476;DHT22;18929;48.008;10.882;2022-10-14T13:11:09;16.00;99.90
32476;DHT22;18929;48.008;10.882;2022-10-14T13:13:49;16.30;99.90
32476;DHT22;18929;48.008;10.882;2022-10-14T13:16:57;16.50;99.90
32476;DHT22;18929;48.008;10.882;2022-10-14T13:19:44;16.70;99.90
32476;DHT22;18929;48.008;10.882;2022-10-14T13:22:34;16.90;99.90
32476;DHT22;18929;48.008;10.882;2022-10-14T13:25:16;16.90;99.90
32476;DHT22;18929;48.008;10.882;2022-10-14T13:27:57;17.00;99.90
32476;DHT22;18929;48.008;10.882;2022-10-14T13:30:34;16.30;99.90
32476;DHT22;18929;48.008;10.882;2022-10-14T13:33:10;16.20;99.90
32476;DHT22;18929;48.008;10.882;2022-10-14T13:35:47;16.20;99.90
32476;DHT22;18929;48.008;10.882;2022-10-14T13:38:18;15.80;99.90
32476;DHT22;18929;48.008;10.882;2022-10-14T13:40:49;16.10;99.90
32476;DHT22;18929;48.008;10.882;2022-10-14T13:43:18;16.10;99.90
32476;DHT22;18929;48.008;10.882;2022-10-14T13:45:50;15.60;99.90
32476;DHT22;18929;48.008;10.882;2022-10-14T13:48:23;16.00;99.90
32476;DHT22;18929;48.008;10.882;2022-10-14T13:50:51;16.20;99.90
32476;DHT22;18929;48.008;10.882;2022-10-14T13:53:23;15.70;99.90
32476;DHT22;18929;48.008;10.882;2022-10-14T13:55:51;15.70;99.90
32476;DHT22;18929;48.008;10.882;2022-10-14T13:58:20;16.00;99.90
32476;DHT22;18929;48.008;10.882;2022-10-14T14:00:50;16.30;99.90
32476;DHT22;18929;48.008;10.882;2022-10-14T14:03:27;16.60;99.90
32476;DHT22;18929;48.008;10.882;2022-10-14T14:05:56;16.60;99.90
32476;DHT22;18929;48.008;10.882;2022-10-14T14:08:26;16.60;99.90
32476;DHT22;18929;48.008;10.882;2022-10-14T14:10:56;16.80;99.90
32476;DHT22;18929;48.008;10.882;2022-10-14T14:13:26;16.90;99.90
32476;DHT22;18929;48.008;10.882;2022-10-14T14:15:53;16.90;99.90
32476;DHT22;18929;48.008;10.882;2022-10-14T14:18:26;16.50;99.90
32476;DHT22;18929;48.008;10.882;2022-10-14T14:20:56;16.50;99.90
32476;DHT22;18929;48.008;10.882;2022-10-14T14:23:33;16.60;99.90
32476;DHT22;18929;48.008;10.882;2022-10-14T14:26:01;16.40;99.90
32476;DHT22;18929;48.008;10.882;2022-10-14T14:28:30;16.70;99.90
32476;DHT22;18929;48.008;10.882;2022-10-14T14:30:57;17.20;99.90
32476;DHT22;18929;48.008;10.882;2022-10-14T14:33:28;17.40;99.90
32476;DHT22;18929;48.008;10.882;2022-10-14T14:35:57;17.70;99.90
32476;DHT22;18929;48.008;10.882;2022-10-14T14:38:28;17.50;99.90
32476;DHT22;18929;48.008;10.882;2022-10-14T14:41:16;17.80;99.90
32476;DHT22;18929;48.008;10.882;2022-10-14T14:43:45;18.00;99.90
32476;DHT22;18929;48.008;10.882;2022-10-14T14:49:24;18.00;99.90
32476;DHT22;18929;48.008;10.882;2022-10-14T14:51:52;18.00;99.90
32476;DHT22;18929;48.008;10.882;2022-10-14T14:54:21;18.10;99.90
32476;DHT22;18929;48.008;10.882;2022-10-14T14:56:54;18.10;99.90
32476;DHT22;18929;48.008;10.882;2022-10-14T15:06:48;18.10;99.90
32476;DHT22;18929;48.008;10.882;2022-10-14T15:09:21;18.20;99.90
32476;DHT22;18929;48.008;10.882;2022-10-14T15:11:52;18.40;99.90
32476;DHT22;18929;48.008;10.882;2022-10-14T15:14:28;18.40;99.90
32476;DHT22;18929;48.008;10.882;2022-10-14T15:16:56;18.10;99.90
32476;DHT22;18929;48.008;10.882;2022-10-14T16:05:19;17.90;99.90
32476;DHT22;18929;48.008;10.882;2022-10-14T16:07:47;17.80;99.90
32476;DHT22;18929;48.008;10.882;2022-10-14T16:10:16;17.80;99.90
32476;DHT22;18929;48.008;10.882;2022-10-14T16:12:44;17.90;99.90
32476;DHT22;18929;48.008;10.882;2022-10-14T16:15:30;17.60;99.90
32476;DHT22;18929;48.008;10.882;2022-10-14T16:17:58;17.60;99.90
32476;DHT22;18929;48.008;10.882;2022-10-14T16:20:27;17.70;99.90
32476;DHT22;18929;48.008;10.882;2022-10-14T16:22:55;18.00;99.90
32476;DHT22;18929;48.008;10.882;2022-10-14T16:25:25;18.00;99.90
32476;DHT22;18929;48.008;10.882;2022-10-14T16:27:54;17.90;99.90
32476;DHT22;18929;48.008;10.882;2022-10-14T16:30:21;17.80;99.90
32476;DHT22;18929;48.008;10.882;2022-10-14T16:32:48;17.90;99.90
32476;DHT22;18929;48.008;10.882;2022-10-14T16:35:16;17.90;99.90
32476;DHT22;18929;48.008;10.882;2022-10-14T16:37:44;17.90;99.90
32476;DHT22;18929;48.008;10.882;2022-10-14T16:40:11;17.80;99.90
32476;DHT22;18929;48.008;10.882;2022-10-14T16:42:38;17.90;99.90
32476;DHT22;18929;48.008;10.882;2022-10-14T16:45:06;17.90;99.90